Lily, Kentucky
Current Conditions -  °F | °C
As of 12:01 AM on Thursday 23 Oct 2014 (Local Time) from KLOZ Reporting Station
Overcast Overcast  
Wind Chill: 47°   Ceiling: 2900
Heat Index: 49°   Visibility: 10mi
Dew Point: 41°   Wind: 5mph
Humidity: 74%   Direction: 30°NNE
Pressure: 30.23"   Gusts: NA
Location:  37.02°N, 84.08°W
Report Text: KLOZ 230401Z AUTO 03004KT 10SM OVC029 09/05 A3023 RMK AO2 T00940050
Loading
Personal Weather Stations






























Interactive Weather Map
Tropical Storm Tracking
New forecast layout! Learn more

10-Day Weather Forecast

Advertisements
Track Severe Weather on mobile